Time;durP1;ratioP1;P1;durP2;ratioP2;P2;SDS_P1;SDS_P2;PMS_P1;PMS_P2;Temp;Humidity;BMP_temperature;BMP_pressure;BME280_temperature;BME280_humidity;BME280_pressure;Samples;Min_cycle;Max_cycle;Signal;HPM_P1;HPM_P2
2020/12/10 00:01:16;;;;;;;91.15;31.10;;;;;;;-0.15;81.10;99920.45;126764;1098;23463;-78
2020/12/10 00:03:46;;;;;;;80.50;28.97;;;;;;;-0.13;81.40;99911.80;126746;1098;23321;-77
2020/12/10 00:06:19;;;;;;;101.83;38.60;;;;;;;-0.13;81.14;99915.33;126590;1098;27919;-78
2020/12/10 00:08:48;;;;;;;77.97;27.77;;;;;;;-0.11;80.65;99912.95;126590;1098;23373;-78
2020/12/10 00:11:17;;;;;;;90.33;33.27;;;;;;;-0.09;81.52;99920.75;126615;1098;26447;-78
2020/12/10 00:13:46;;;;;;;85.47;31.13;;;;;;;-0.10;81.41;99916.45;126728;1098;23357;-78
2020/12/10 00:16:15;;;;;;;80.80;28.80;;;;;;;-0.11;80.83;99907.45;126693;1098;23919;-78
2020/12/10 00:18:44;;;;;;;77.70;25.93;;;;;;;-0.10;81.11;99906.25;126738;1098;27444;-78
2020/12/10 00:21:19;;;;;;;68.73;25.50;;;;;;;-0.12;80.46;99894.92;126706;1098;26398;-78
2020/12/10 00:23:48;;;;;;;63.20;24.50;;;;;;;-0.15;80.46;99895.77;126716;1098;28296;-78
2020/12/10 00:26:18;;;;;;;72.03;25.90;;;;;;;-0.16;80.73;99901.64;126760;1098;23375;-77
2020/12/10 00:28:47;;;;;;;78.45;29.10;;;;;;;-0.16;81.25;99907.13;126679;1099;25088;-78
2020/12/10 00:31:16;;;;;;;76.37;27.20;;;;;;;-0.16;81.02;99912.63;126616;1098;23382;-78
2020/12/10 00:33:45;;;;;;;73.10;25.37;;;;;;;-0.19;81.21;99907.98;126649;1098;23310;-76
2020/12/10 00:36:16;;;;;;;78.60;29.60;;;;;;;-0.21;80.99;99913.10;126571;1098;23368;-78
2020/12/10 00:38:45;;;;;;;74.97;27.80;;;;;;;-0.26;80.95;99902.58;126727;1098;23451;-77
2020/12/10 00:41:16;;;;;;;82.03;31.00;;;;;;;-0.28;81.00;99897.52;126746;1099;23315;-78
2020/12/10 00:43:45;;;;;;;95.07;34.03;;;;;;;-0.26;81.35;99900.63;126810;1098;23373;-78
2020/12/10 00:46:15;;;;;;;87.40;33.93;;;;;;;-0.23;81.12;99899.02;126765;1098;23472;-78
2020/12/10 00:48:44;;;;;;;100.60;34.27;;;;;;;-0.22;81.47;99897.82;126956;1098;23312;-78
2020/12/10 00:51:13;;;;;;;93.13;33.27;;;;;;;-0.20;80.91;99895.44;127075;1099;27757;-78
2020/12/10 00:53:42;;;;;;;100.80;33.53;;;;;;;-0.21;81.35;99893.90;126978;1098;23339;-79
2020/12/10 00:56:11;;;;;;;96.60;32.60;;;;;;;-0.20;81.31;99889.95;126999;1100;25021;-79
2020/12/10 00:58:41;;;;;;;80.70;27.00;;;;;;;-0.18;80.80;99884.82;126819;1098;23403;-78
2020/12/10 01:01:10;;;;;;;69.70;26.40;;;;;;;-0.18;81.08;99882.08;126915;1099;23448;-78
2020/12/10 01:03:39;;;;;;;77.73;27.47;;;;;;;-0.20;80.85;99889.95;126568;1098;25111;-78
2020/12/10 01:06:12;;;;;;;66.23;24.60;;;;;;;-0.23;80.88;99883.31;126653;1099;26430;-78
2020/12/10 01:08:41;;;;;;;70.63;26.33;;;;;;;-0.27;80.39;99881.84;127076;1099;26814;-79
2020/12/10 01:11:10;;;;;;;73.40;25.90;;;;;;;-0.28;81.15;99883.02;126623;1098;23373;-78
2020/12/10 01:13:39;;;;;;;73.53;27.57;;;;;;;-0.32;81.00;99885.83;126620;1098;26430;-78
2020/12/10 01:16:08;;;;;;;91.90;34.13;;;;;;;-0.32;81.28;99883.08;126679;1093;30488;-78
2020/12/10 01:18:37;;;;;;;87.90;32.90;;;;;;;-0.33;80.45;99873.28;126723;1099;25052;-78
2020/12/10 01:21:06;;;;;;;77.13;28.27;;;;;;;-0.34;81.24;99879.20;126694;1098;26184;-78
2020/12/10 01:23:35;;;;;;;86.40;30.30;;;;;;;-0.34;81.02;99873.70;126739;1093;28238;-78
2020/12/10 01:26:04;;;;;;;91.32;30.52;;;;;;;-0.35;80.71;99867.44;126604;1098;29132;-78
2020/12/10 01:28:33;;;;;;;77.63;29.27;;;;;;;-0.38;80.36;99871.03;126822;1098;23674;-78
2020/12/10 01:31:03;;;;;;;73.87;27.10;;;;;;;-0.41;80.84;99866.36;126507;1098;23473;-78
2020/12/10 01:33:33;;;;;;;65.57;25.70;;;;;;;-0.41;81.06;99857.34;126780;1098;24792;-78
2020/12/10 01:36:02;;;;;;;84.27;28.73;;;;;;;-0.42;81.15;99855.80;126587;1098;26584;-78
2020/12/10 01:38:31;;;;;;;99.10;36.47;;;;;;;-0.41;81.37;99854.60;126748;1098;23366;-78
2020/12/10 01:41:00;;;;;;;98.63;36.53;;;;;;;-0.42;81.12;99853.84;126721;1099;23409;-78
2020/12/10 01:43:29;;;;;;;86.80;29.50;;;;;;;-0.43;80.91;99846.02;126723;1098;23466;-78
2020/12/10 01:45:58;;;;;;;87.37;29.60;;;;;;;-0.46;81.09;99846.86;126665;1098;26494;-77
2020/12/10 01:48:27;;;;;;;76.87;28.80;;;;;;;-0.45;81.10;99837.42;126673;1098;26516;-78
2020/12/10 01:50:57;;;;;;;95.90;32.00;;;;;;;-0.43;81.44;99838.57;126684;1098;23319;-78
2020/12/10 01:53:27;;;;;;;81.40;30.52;;;;;;;-0.45;81.25;99837.42;126616;1098;23318;-78
2020/12/10 01:55:56;;;;;;;107.53;35.70;;;;;;;-0.46;80.94;99844.12;126653;1098;23322;-78
2020/12/10 01:58:25;;;;;;;90.97;33.90;;;;;;;-0.43;81.44;99846.80;126781;1098;23326;-78
2020/12/10 02:00:56;;;;;;;112.80;38.17;;;;;;;-0.42;80.98;99842.88;126728;1098;23326;-78
2020/12/10 02:03:25;;;;;;;113.43;39.03;;;;;;;-0.39;80.96;99828.33;126678;1098;23422;-78
2020/12/10 02:05:54;;;;;;;114.40;36.67;;;;;;;-0.39;80.93;99828.33;126671;1098;23530;-78
2020/12/10 02:08:23;;;;;;;78.90;27.70;;;;;;;-0.42;81.11;99831.13;126684;1098;23369;-78
2020/12/10 02:10:51;;;;;;;83.40;27.13;;;;;;;-0.48;81.84;99828.09;126607;1098;23471;-78
2020/12/10 02:13:21;;;;;;;73.67;28.70;;;;;;;-0.46;81.21;99831.19;126788;1099;23415;-79
2020/12/10 02:15:50;;;;;;;68.63;24.00;;;;;;;-0.46;81.71;99825.70;126626;1098;23343;-78
2020/12/10 02:18:19;;;;;;;76.30;27.40;;;;;;;-0.47;81.22;99826.88;126742;1098;26872;-77
2020/12/10 02:20:48;;;;;;;82.67;29.77;;;;;;;-0.43;80.90;99827.60;126693;1099;23304;-78
2020/12/10 02:23:17;;;;;;;76.10;29.25;;;;;;;-0.42;81.82;99822.91;126742;1098;23377;-78
2020/12/10 02:25:46;;;;;;;79.90;28.00;;;;;;;-0.46;81.13;99816.70;126657;1098;23796;-77
2020/12/10 02:28:17;;;;;;;69.40;24.10;;;;;;;-0.47;81.05;99823.36;126679;1099;23470;-78
2020/12/10 02:30:47;;;;;;;95.13;30.93;;;;;;;-0.47;81.54;99818.66;126709;1098;26494;-78
2020/12/10 02:33:15;;;;;;;;;;;;;;;-0.45;80.95;99821.76;126728;1099;23388;-78
2020/12/10 02:35:46;;;;;;;78.17;27.90;;;;;;;-0.44;81.41;99817.05;126706;1098;21569;-78
2020/12/10 02:38:15;;;;;;;76.93;28.33;;;;;;;-0.43;81.85;99818.59;126687;1099;23440;-78
2020/12/10 02:40:46;;;;;;;72.30;28.17;;;;;;;-0.43;81.02;99818.59;126634;1098;23764;-78
2020/12/10 02:43:16;;;;;;;67.97;25.13;;;;;;;-0.41;80.92;99814.25;126757;1099;23330;-78
2020/12/10 02:45:45;;;;;;;72.10;26.55;;;;;;;-0.40;81.71;99815.03;126861;1098;23490;-77
2020/12/10 02:48:14;;;;;;;88.43;30.83;;;;;;;-0.40;81.92;99817.78;126687;1098;23546;-78
2020/12/10 02:50:44;;;;;;;73.70;27.60;;;;;;;-0.40;81.86;99810.33;126665;1098;23369;-78
2020/12/10 02:53:13;;;;;;;83.80;27.93;;;;;;;-0.37;81.02;99812.23;126710;1098;23793;-78
2020/12/10 02:55:42;;;;;;;79.37;29.67;;;;;;;-0.40;81.64;99804.06;126667;1098;27929;-78
2020/12/10 02:58:11;;;;;;;84.47;29.40;;;;;;;-0.39;81.87;99811.09;126712;1098;23411;-78
2020/12/10 03:00:40;;;;;;;67.30;23.65;;;;;;;-0.41;81.49;99799.75;126767;1098;23566;-78
2020/12/10 03:03:09;;;;;;;73.70;23.97;;;;;;;-0.42;81.73;99792.73;126750;1099;28821;-78
2020/12/10 03:05:38;;;;;;;64.40;22.83;;;;;;;-0.43;81.15;99791.17;126840;1098;26928;-78
2020/12/10 03:08:08;;;;;;;68.07;23.30;;;;;;;-0.44;80.82;99797.86;126731;1098;23333;-78
2020/12/10 03:10:37;;;;;;;67.30;23.10;;;;;;;-0.46;81.66;99797.50;126801;1098;23385;-78
2020/12/10 03:13:06;;;;;;;68.57;23.47;;;;;;;-0.44;81.54;99797.86;126716;1098;24139;-78
2020/12/10 03:15:35;;;;;;;73.45;25.80;;;;;;;-0.46;81.02;99792.02;126700;1099;23464;-78
2020/12/10 03:18:05;;;;;;;70.40;22.83;;;;;;;-0.45;81.40;99779.84;126817;1098;26392;-78
2020/12/10 03:20:34;;;;;;;61.90;23.80;;;;;;;-0.44;81.82;99781.41;126736;1098;26786;-78
2020/12/10 03:23:03;;;;;;;80.77;27.93;;;;;;;-0.44;80.89;99784.94;126725;1099;27888;-78
2020/12/10 03:25:32;;;;;;;69.27;22.37;;;;;;;-0.43;81.77;99780.20;126762;1098;25083;-78
2020/12/10 03:28:01;;;;;;;67.13;21.80;;;;;;;-0.39;81.75;99778.17;127013;1098;23319;-79
2020/12/10 03:30:30;;;;;;;65.57;23.40;;;;;;;-0.41;80.94;99766.85;126802;1098;23314;-78
2020/12/10 03:32:59;;;;;;;66.50;23.97;;;;;;;-0.43;81.03;99772.76;126644;1098;23512;-78
2020/12/10 03:35:28;;;;;;;66.87;25.27;;;;;;;-0.43;80.82;99766.49;126728;1098;23661;-78
2020/12/10 03:37:59;;;;;;;65.95;20.70;;;;;;;-0.45;80.93;99763.39;126657;1093;23300;-78
2020/12/10 03:40:29;;;;;;;62.70;22.43;;;;;;;-0.44;81.44;99760.25;126642;1099;26795;-78
2020/12/10 03:42:57;;;;;;;65.73;23.10;;;;;;;-0.47;81.61;99768.52;126672;1099;23315;-79
2020/12/10 03:45:27;;;;;;;69.55;22.85;;;;;;;-0.46;80.78;99753.62;126738;1099;23440;-78
2020/12/10 03:47:55;;;;;;;68.63;20.70;;;;;;;-0.48;81.27;99754.05;126626;1098;23322;-78
2020/12/10 03:50:24;;;;;;;65.10;22.57;;;;;;;-0.48;81.63;99753.27;126624;1098;23430;-78
2020/12/10 03:52:53;;;;;;;64.73;20.30;;;;;;;-0.51;81.47;99751.34;126631;1098;23405;-78
2020/12/10 03:55:22;;;;;;;63.43;21.70;;;;;;;-0.54;81.63;99750.23;126771;1098;23387;-78
2020/12/10 03:57:51;;;;;;;79.10;23.03;;;;;;;-0.52;81.66;99749.81;126669;1098;23369;-77
2020/12/10 04:00:21;;;;;;;70.50;24.73;;;;;;;-0.51;81.82;99748.61;126704;1098;23309;-78
2020/12/10 04:02:50;;;;;;;81.27;26.63;;;;;;;-0.52;80.97;99747.85;126879;1099;23396;-78
2020/12/10 04:05:19;;;;;;;82.23;26.17;;;;;;;-0.50;81.63;99741.94;126712;1099;26834;-78
2020/12/10 04:07:48;;;;;;;76.37;25.37;;;;;;;-0.49;81.41;99749.75;126662;1098;23384;-78
2020/12/10 04:10:17;;;;;;;84.00;28.87;;;;;;;-0.48;81.19;99747.78;126672;1098;26424;-78
2020/12/10 04:12:46;;;;;;;79.43;26.60;;;;;;;-0.46;81.46;99743.44;126789;1099;23379;-78
2020/12/10 04:15:15;;;;;;;78.77;27.47;;;;;;;-0.43;81.15;99739.85;126604;1098;23310;-78
2020/12/10 04:17:44;;;;;;;74.63;25.37;;;;;;;-0.41;81.29;99733.94;126641;1098;23380;-78
2020/12/10 04:20:13;;;;;;;70.40;25.50;;;;;;;-0.38;81.02;99738.61;126580;1098;23381;-78
2020/12/10 04:22:42;;;;;;;65.13;21.57;;;;;;;-0.38;81.59;99744.09;126795;1098;23332;-77
2020/12/10 04:25:11;;;;;;;55.63;19.70;;;;;;;-0.38;81.19;99742.13;126482;1098;23428;-78
2020/12/10 04:27:41;;;;;;;71.07;22.10;;;;;;;-0.40;80.76;99750.00;126624;1098;23457;-78
2020/12/10 04:30:11;;;;;;;63.92;21.12;;;;;;;-0.43;81.43;99748.08;126775;1098;23428;-77
2020/12/10 04:32:40;;;;;;;56.13;19.40;;;;;;;-0.43;81.74;99750.04;126689;1098;24974;-78
2020/12/10 04:35:11;;;;;;;54.00;21.35;;;;;;;-0.43;81.29;99748.08;126633;1098;23315;-78
2020/12/10 04:37:41;;;;;;;61.10;22.17;;;;;;;-0.44;81.67;99741.06;126684;1098;23373;-79
2020/12/10 04:40:10;;;;;;;63.02;26.57;;;;;;;-0.44;81.62;99738.31;126798;1098;25088;-78
2020/12/10 04:42:41;;;;;;;106.33;41.03;;;;;;;-0.44;81.11;99738.31;126580;1098;25059;-77
2020/12/10 04:45:11;;;;;;;119.63;52.23;;;;;;;-0.48;80.71;99742.30;126584;1099;28194;-78
2020/12/10 04:47:42;;;;;;;82.27;26.70;;;;;;;-0.50;81.00;99750.17;126615;1098;23338;-78
2020/12/10 04:50:18;;;;;;;;;;;;;;;-0.51;81.49;99740.38;126888;1098;24927;-78
2020/12/10 04:52:47;;;;;;;61.50;21.00;;;;;;;-0.51;81.68;99741.16;126577;1099;21560;-78
2020/12/10 04:55:18;;;;;;;60.63;22.30;;;;;;;-0.48;81.30;99736.82;126767;1098;23369;-78
2020/12/10 04:57:47;;;;;;;66.77;25.50;;;;;;;-0.45;81.76;99741.45;126772;1099;23438;-78
2020/12/10 05:00:18;;;;;;;60.07;22.57;;;;;;;-0.49;81.08;99729.77;126787;1099;23553;-78
2020/12/10 05:02:47;;;;;;;60.30;21.60;;;;;;;-0.52;81.58;99727.88;126690;1098;23467;-78
2020/12/10 05:05:28;;;;;;;68.17;23.40;;;;;;;-0.56;80.77;99725.17;126842;1098;23333;-78
2020/12/10 05:07:59;;;;;;;61.65;21.93;;;;;;;-0.57;81.58;99733.82;126710;1098;23315;-78
2020/12/10 05:10:29;;;;;;;57.15;21.85;;;;;;;-0.56;81.71;99727.16;126867;1092;23368;-78
2020/12/10 05:13:07;;;;;;;64.58;21.75;;;;;;;-0.57;81.00;99736.56;126872;1098;23369;-78
2020/12/10 05:15:38;;;;;;;60.33;21.70;;;;;;;-0.58;81.42;99732.29;126485;1098;23372;-77
2020/12/10 05:18:06;;;;;;;;;;;;;;;-0.56;81.35;99732.64;126637;1100;29423;-78
2020/12/10 05:20:46;;;;;;;65.85;21.30;;;;;;;-0.57;81.77;99734.61;127107;1098;21508;-80
2020/12/10 05:23:18;;;;;;;68.20;25.92;;;;;;;-0.54;81.85;99730.27;127147;1099;23416;-79
2020/12/10 05:25:51;;;;;;;97.47;38.40;;;;;;;-0.51;81.79;99732.16;127554;1098;23380;-79
2020/12/10 05:28:25;;;;;;;93.50;45.47;;;;;;;-0.47;81.45;99730.91;126584;1098;29080;-78
2020/12/10 05:31:05;;;;;;;76.07;30.20;;;;;;;-0.48;81.03;99728.59;126774;1097;23421;-78
2020/12/10 05:33:34;;;;;;;;;;;;;;;-0.46;81.65;99720.73;126862;1098;25093;-78
2020/12/10 05:36:11;;;;;;;92.73;36.27;;;;;;;-0.50;81.11;99726.28;126740;1099;21508;-79
2020/12/10 05:38:57;;;;;;;99.63;37.07;;;;;;;-0.52;80.90;99720.44;126968;1099;23342;-79
2020/12/10 05:41:27;;;;;;;114.10;37.37;;;;;;;-0.54;81.10;99713.81;126608;1099;23372;-77
2020/12/10 05:43:56;;;;;;;78.60;28.43;;;;;;;-0.55;80.74;99712.25;126691;1098;23372;-78
2020/12/10 05:46:26;;;;;;;139.73;44.60;;;;;;;-0.55;81.59;99717.73;126584;1093;23410;-77
2020/12/10 05:48:54;;;;;;;105.25;36.77;;;;;;;-0.54;81.50;99711.85;126653;1098;24899;-78
2020/12/10 05:51:24;;;;;;;108.00;35.13;;;;;;;-0.54;81.62;99713.81;126642;1093;23322;-77
2020/12/10 05:53:59;;;;;;;91.57;31.67;;;;;;;-0.54;81.84;99720.08;126640;1098;25368;-78
2020/12/10 05:56:33;;;;;;;88.87;29.97;;;;;;;-0.51;81.58;99712.96;126715;1098;27949;-78
2020/12/10 05:59:04;;;;;;;93.83;32.20;;;;;;;-0.52;81.63;99708.69;126714;1099;23310;-77
2020/12/10 06:01:35;;;;;;;;;;;;;;;-0.52;81.06;99708.69;126748;1098;23302;-76
2020/12/10 06:04:05;;;;;;;65.93;21.27;;;;;;;-0.55;81.98;99706.77;126922;1099;21593;-76
2020/12/10 06:06:34;;;;;;;64.80;23.30;;;;;;;-0.55;81.07;99712.25;126691;1098;23322;-77
2020/12/10 06:09:05;;;;;;;71.93;27.07;;;;;;;-0.55;81.37;99713.03;127015;1093;24203;-76
2020/12/10 06:11:38;;;;;;;79.37;30.27;;;;;;;-0.54;80.99;99711.07;126852;1099;23427;-77
2020/12/10 06:14:08;;;;;;;71.43;23.13;;;;;;;-0.58;81.03;99697.40;126863;1098;24471;-76
2020/12/10 06:16:37;;;;;;;68.67;25.13;;;;;;;-0.59;80.99;99709.58;126842;1098;23324;-76
2020/12/10 06:19:10;;;;;;;76.80;28.13;;;;;;;-0.58;81.13;99710.36;126923;1099;23385;-78
2020/12/10 06:21:42;;;;;;;95.87;34.17;;;;;;;-0.58;81.17;99713.84;126949;1099;26798;-77
2020/12/10 06:24:34;;;;;;;103.20;37.83;;;;;;;-0.56;81.92;99710.71;127011;1098;23330;-78
2020/12/10 06:27:21;;;;;;;91.65;32.60;;;;;;;-0.55;81.14;99710.29;127195;1099;23477;-79
2020/12/10 06:30:09;;;;;;;73.27;24.20;;;;;;;-0.57;80.92;99703.66;126805;1098;23453;-77
2020/12/10 06:32:42;;;;;;;77.65;27.40;;;;;;;-0.60;81.04;99702.53;126754;1098;25201;-78
2020/12/10 06:35:33;;;;;;;71.43;25.63;;;;;;;-0.57;81.37;99700.92;126830;1098;23331;-76
2020/12/10 06:38:03;;;;;;;76.57;27.63;;;;;;;-0.56;81.04;99697.00;126837;1099;23315;-78
2020/12/10 06:40:35;;;;;;;87.12;27.30;;;;;;;-0.55;81.74;99698.54;126922;1098;23429;-78
2020/12/10 06:43:06;;;;;;;57.40;20.87;;;;;;;-0.55;81.00;99693.84;127151;1093;23393;-77
2020/12/10 06:45:37;;;;;;;87.20;31.12;;;;;;;-0.54;81.90;99686.39;126997;1098;23441;-78
2020/12/10 06:48:08;;;;;;;74.50;25.47;;;;;;;-0.57;81.69;99688.00;126946;1098;23315;-78
2020/12/10 06:50:39;;;;;;;76.23;28.87;;;;;;;-0.59;81.42;99690.38;126932;1099;24131;-78
2020/12/10 06:53:16;;;;;;;61.97;22.37;;;;;;;-0.59;81.46;99690.38;127549;1098;23332;-78
2020/12/10 06:56:09;;;;;;;65.57;23.77;;;;;;;-0.61;81.38;99689.24;126989;1093;23429;-78
2020/12/10 06:58:50;;;;;;;64.57;22.47;;;;;;;-0.62;81.36;99696.69;126807;1099;23376;-77
2020/12/10 07:01:34;;;;;;;70.33;25.80;;;;;;;-0.64;80.95;99692.84;126941;1098;25001;-77
2020/12/10 07:04:31;;;;;;;59.60;27.03;;;;;;;-0.66;81.82;99693.23;126793;1100;25093;-79
2020/12/10 07:07:18;;;;;;;70.13;27.23;;;;;;;-0.65;81.55;99680.30;126604;1098;27803;-78
2020/12/10 07:09:54;;;;;;;83.20;32.00;;;;;;;-0.64;80.96;99692.84;127131;1098;23494;-77
2020/12/10 07:12:25;;;;;;;72.35;23.75;;;;;;;-0.66;81.80;99689.73;126794;1098;23375;-77
2020/12/10 07:15:11;;;;;;;68.43;26.00;;;;;;;-0.66;82.05;99684.25;127258;1100;25217;-77
2020/12/10 07:17:40;;;;;;;69.77;30.93;;;;;;;-0.66;81.17;99678.77;126862;1098;23315;-77
2020/12/10 07:20:09;;;;;;;90.67;36.93;;;;;;;-0.68;81.25;99679.17;126785;1098;23366;-77
2020/12/10 07:22:38;;;;;;;59.27;22.90;;;;;;;-0.67;81.69;99675.25;126960;1098;23479;-77
2020/12/10 07:25:07;;;;;;;67.03;22.23;;;;;;;-0.66;81.71;99684.25;127102;1099;23312;-76
2020/12/10 07:27:36;;;;;;;67.53;23.73;;;;;;;-0.68;81.96;99672.93;126838;1098;23370;-77
2020/12/10 07:30:10;;;;;;;93.03;33.90;;;;;;;-0.66;81.83;99671.30;126974;1098;23462;-78
2020/12/10 07:32:40;;;;;;;77.23;31.43;;;;;;;-0.64;81.51;99674.40;127336;1099;25105;-77
2020/12/10 07:35:10;;;;;;;87.30;36.15;;;;;;;-0.67;81.04;99674.47;127224;1098;23339;-77
2020/12/10 07:37:40;;;;;;;71.28;32.67;;;;;;;-0.68;81.18;99673.69;127238;1098;23884;-76
2020/12/10 07:40:16;;;;;;;85.27;42.03;;;;;;;-0.66;81.87;99678.77;127333;1099;23323;-77
2020/12/10 07:42:45;;;;;;;92.95;36.50;;;;;;;-0.67;81.69;99664.28;127286;1099;23617;-78
2020/12/10 07:45:17;;;;;;;80.17;30.63;;;;;;;-0.65;81.74;99672.86;127153;1098;23781;-78
2020/12/10 07:47:56;;;;;;;74.97;34.53;;;;;;;-0.61;81.40;99659.09;126868;1098;23503;-77
2020/12/10 07:50:27;;;;;;;65.05;24.90;;;;;;;-0.63;81.14;99658.73;127038;1098;23366;-77
2020/12/10 07:52:57;;;;;;;66.13;24.63;;;;;;;-0.65;81.17;99658.37;126925;1098;23437;-77
2020/12/10 07:55:26;;;;;;;;;;;;;;;-0.67;81.83;99663.50;127641;1098;23390;-77
2020/12/10 07:58:06;;;;;;;87.90;30.70;;;;;;;-0.64;81.63;99657.95;126991;1099;24237;-76
2020/12/10 08:00:37;;;;;;;87.22;30.23;;;;;;;-0.65;81.94;99659.16;127334;1098;23332;-76
2020/12/10 08:03:20;;;;;;;79.77;29.63;;;;;;;-0.61;81.37;99656.34;126974;1098;23318;-76
2020/12/10 08:06:02;;;;;;;86.83;35.03;;;;;;;-0.59;81.30;99656.70;126837;1098;27100;-76
2020/12/10 08:08:36;;;;;;;67.10;26.00;;;;;;;-0.59;81.24;99656.70;126904;1098;23324;-78
2020/12/10 08:11:13;;;;;;;70.67;25.20;;;;;;;-0.58;81.85;99655.53;127064;1099;24367;-76
2020/12/10 08:14:01;;;;;;;71.80;24.40;;;;;;;-0.58;81.88;99659.02;127089;1098;23852;-75
2020/12/10 08:16:41;;;;;;;55.90;20.40;;;;;;;-0.54;81.31;99659.77;126759;1098;23354;-76
2020/12/10 08:19:18;;;;;;;51.88;18.50;;;;;;;-0.53;81.49;99650.33;126914;1098;23457;-77
2020/12/10 08:21:48;;;;;;;59.37;19.87;;;;;;;-0.53;81.28;99653.07;127204;1092;23312;-77
2020/12/10 08:24:34;;;;;;;77.50;30.03;;;;;;;-0.51;81.62;99650.69;129347;1092;23359;-77
2020/12/10 08:27:05;;;;;;;61.53;23.37;;;;;;;-0.50;81.08;99654.20;126820;1098;23318;-77
2020/12/10 08:29:34;;;;;;;52.47;20.63;;;;;;;-0.53;80.84;99652.29;127170;1099;23380;-77
2020/12/10 08:32:11;;;;;;;66.83;25.60;;;;;;;-0.56;80.92;99659.38;126779;1098;23309;-76
2020/12/10 08:34:41;;;;;;;65.90;25.63;;;;;;;-0.53;81.11;99653.07;126771;1098;26889;-77
2020/12/10 08:37:11;;;;;;;70.67;26.73;;;;;;;-0.51;81.79;99663.61;127023;1098;23318;-77
2020/12/10 08:39:42;;;;;;;62.33;23.75;;;;;;;-0.51;81.15;99667.13;126830;1098;23845;-77
2020/12/10 08:42:12;;;;;;;64.10;23.33;;;;;;;-0.50;81.84;99660.47;126996;1098;23306;-76
2020/12/10 08:44:47;;;;;;;;;;;;;;;-0.45;81.20;99667.42;127098;1098;23581;-76
2020/12/10 08:47:24;;;;;;;65.90;22.80;;;;;;;-0.44;81.64;99652.53;127032;1099;25716;-77
2020/12/10 08:50:23;;;;;;;58.97;21.33;;;;;;;-0.42;81.97;99652.88;127006;1098;23460;-76
2020/12/10 08:53:07;;;;;;;61.40;21.67;;;;;;;-0.45;81.09;99651.75;127095;1099;23520;-76
2020/12/10 08:55:39;;;;;;;69.90;23.10;;;;;;;-0.45;81.41;99648.23;126835;1098;23389;-76
2020/12/10 08:58:14;;;;;;;58.87;21.63;;;;;;;-0.45;81.23;99651.75;127206;1098;23336;-77
2020/12/10 09:00:43;;;;;;;68.80;23.27;;;;;;;-0.45;81.85;99650.97;127012;1099;26562;-77
2020/12/10 09:03:13;;;;;;;67.53;23.80;;;;;;;-0.43;81.32;99654.06;126849;1099;23330;-77
2020/12/10 09:05:42;;;;;;;65.13;22.17;;;;;;;-0.40;81.55;99639.53;126802;1099;26383;-76
2020/12/10 09:08:12;;;;;;;128.87;42.83;;;;;;;-0.40;81.14;99650.50;126833;1098;23337;-76
2020/12/10 09:10:41;;;;;;;209.43;73.62;;;;;;;-0.40;81.92;99647.75;126918;1098;23336;-76
2020/12/10 09:13:11;;;;;;;156.15;52.90;;;;;;;-0.39;81.72;99643.80;126688;1098;23573;-75
2020/12/10 09:15:41;;;;;;;157.00;54.60;;;;;;;-0.39;81.23;99649.28;126832;1093;23369;-75
2020/12/10 09:18:10;;;;;;;131.03;45.33;;;;;;;-0.37;81.55;99641.41;126872;1098;23421;-75
2020/12/10 09:20:40;;;;;;;102.20;36.60;;;;;;;-0.37;81.31;99639.45;126937;1099;28368;-76
2020/12/10 09:23:10;;;;;;;92.22;32.98;;;;;;;-0.35;81.80;99639.05;126938;1098;23375;-76
2020/12/10 09:25:40;;;;;;;158.37;50.10;;;;;;;-0.34;81.07;99641.38;126905;1098;26848;-77
2020/12/10 09:28:09;;;;;;;88.30;28.67;;;;;;;-0.33;81.73;99631.18;126758;1098;23315;-77
2020/12/10 09:30:40;;;;;;;87.20;30.40;;;;;;;-0.32;81.63;99627.23;126885;1098;24059;-77
2020/12/10 09:33:09;;;;;;;111.40;38.15;;;;;;;-0.31;81.29;99621.31;126992;1098;23333;-76
2020/12/10 09:35:38;;;;;;;102.93;35.33;;;;;;;-0.31;80.90;99623.30;126829;1099;26774;-76
2020/12/10 09:38:08;;;;;;;79.25;25.05;;;;;;;-0.33;81.83;99614.73;126862;1098;24596;-77
2020/12/10 09:40:37;;;;;;;69.60;23.33;;;;;;;-0.37;81.76;99612.03;127113;1098;23517;-76
2020/12/10 09:43:06;;;;;;;82.40;26.35;;;;;;;-0.35;81.10;99606.15;126812;1098;23808;-76
2020/12/10 09:45:36;;;;;;;68.70;25.50;;;;;;;-0.38;81.14;99615.98;127288;1098;23329;-77
2020/12/10 09:48:05;;;;;;;66.17;24.73;;;;;;;-0.38;81.10;99605.02;127177;1099;27142;-76
2020/12/10 09:50:41;;;;;;;64.60;22.55;;;;;;;-0.39;81.15;99599.92;127083;1098;24256;-75
2020/12/10 09:53:15;;;;;;;56.30;21.27;;;;;;;-0.38;81.48;99602.27;126900;1098;23315;-77
2020/12/10 09:58:32;;;;;;;59.03;20.83;;;;;;;-0.36;81.27;99593.61;126797;1099;23390;-76
2020/12/10 10:01:03;;;;;;;55.37;19.57;;;;;;;-0.38;81.13;99594.05;126971;1099;23406;-76
2020/12/10 10:03:33;;;;;;;95.77;34.17;;;;;;;-0.36;81.64;99593.61;126948;1098;25054;-75
2020/12/10 10:06:02;;;;;;;117.40;45.28;;;;;;;-0.35;81.08;99586.95;126695;1098;23385;-75
2020/12/10 10:08:32;;;;;;;123.80;44.67;;;;;;;-0.36;81.71;99580.69;126899;1093;26427;-74
2020/12/10 10:11:03;;;;;;;102.30;41.20;;;;;;;-0.32;81.51;99588.83;126943;1098;23524;-75
2020/12/10 10:13:33;;;;;;;88.62;32.85;;;;;;;-0.31;81.85;99591.15;126819;1098;24050;-74
2020/12/10 10:16:03;;;;;;;92.00;35.15;;;;;;;-0.37;80.94;99587.34;126947;1098;23389;-74
2020/12/10 10:18:34;;;;;;;121.10;42.13;;;;;;;-0.36;81.11;99586.17;127154;1098;23389;-74
2020/12/10 10:21:04;;;;;;;86.10;32.33;;;;;;;-0.34;81.52;99572.03;126752;1099;24191;-74
2020/12/10 10:23:36;;;;;;;99.50;36.47;;;;;;;-0.37;81.31;99570.11;126881;1098;24129;-74
2020/12/10 10:26:08;;;;;;;94.23;36.83;;;;;;;-0.35;81.84;99571.25;126820;1099;23322;-74
2020/12/10 10:28:39;;;;;;;82.00;28.47;;;;;;;-0.38;81.85;99568.58;126876;1098;27192;-75
2020/12/10 10:31:10;;;;;;;81.30;29.37;;;;;;;-0.37;81.52;99570.11;126817;1093;23431;-75
2020/12/10 10:33:40;;;;;;;83.90;29.60;;;;;;;-0.32;81.92;99566.89;126969;1098;23402;-75
2020/12/10 10:36:11;;;;;;;74.40;28.75;;;;;;;-0.27;82.21;99563.67;127164;1098;23391;-76
2020/12/10 10:38:41;;;;;;;87.00;35.70;;;;;;;-0.24;81.23;99560.06;127157;1098;23335;-74
2020/12/10 10:41:13;;;;;;;95.85;36.33;;;;;;;-0.23;81.55;99559.64;127047;1098;26161;-74
2020/12/10 10:43:44;;;;;;;74.17;27.80;;;;;;;-0.22;81.35;99554.93;127351;1098;23373;-74
2020/12/10 10:46:19;;;;;;;80.57;33.50;;;;;;;-0.20;81.38;99552.54;126953;1098;23561;-74
2020/12/10 10:48:50;;;;;;;93.67;37.53;;;;;;;-0.27;81.41;99542.48;127340;1098;23384;-74
2020/12/10 10:51:21;;;;;;;55.40;21.17;;;;;;;-0.25;81.53;99550.31;127500;1099;23524;-75
2020/12/10 10:53:52;;;;;;;74.40;30.15;;;;;;;-0.26;81.63;99543.26;127687;1093;28874;-75
2020/12/10 10:56:26;;;;;;;61.30;21.73;;;;;;;-0.26;81.68;99537.77;127372;1098;23386;-75
2020/12/10 10:58:57;;;;;;;54.73;21.83;;;;;;;-0.26;81.13;99533.07;126981;1098;23456;-76
2020/12/10 11:01:28;;;;;;;63.77;25.93;;;;;;;-0.22;81.23;99522.02;126963;1098;23378;-75
2020/12/10 11:03:58;;;;;;;68.67;31.47;;;;;;;-0.17;81.44;99532.50;126915;1098;23520;-76
2020/12/10 11:06:28;;;;;;;51.20;21.37;;;;;;;-0.16;81.74;99528.55;129283;1099;26943;-75
2020/12/10 11:08:57;;;;;;;47.60;16.33;;;;;;;-0.19;80.74;99523.92;126811;1098;23420;-74
2020/12/10 11:11:27;;;;;;;57.80;23.80;;;;;;;-0.23;81.35;99523.98;127155;1098;26845;-74
2020/12/10 11:13:57;;;;;;;67.75;26.37;;;;;;;-0.24;80.93;99519.70;126759;1098;23642;-74
2020/12/10 11:16:27;;;;;;;86.95;31.85;;;;;;;-0.25;80.68;99517.39;126716;1099;28324;-76
2020/12/10 11:18:56;;;;;;;88.17;33.13;;;;;;;-0.23;80.66;99518.49;126682;1099;25226;-75
2020/12/10 11:21:28;;;;;;;91.83;32.33;;;;;;;-0.20;81.26;99516.88;126674;1098;23346;-74
2020/12/10 11:23:57;;;;;;;104.80;39.93;;;;;;;-0.19;80.91;99516.45;126713;1099;23353;-75
2020/12/10 11:26:26;;;;;;;68.60;26.05;;;;;;;-0.17;81.44;99513.30;126806;1098;23333;-75
2020/12/10 11:28:56;;;;;;;53.27;18.33;;;;;;;-0.20;80.67;99514.92;126929;1098;23384;-76
2020/12/10 11:31:27;;;;;;;52.20;20.50;;;;;;;-0.20;81.56;99514.14;126978;1098;23920;-76